Time;durP1;ratioP1;P1;durP2;ratioP2;P2;SDS_P1;SDS_P2;PMS_P1;PMS_P2;Temp;Humidity;BMP_temperature;BMP_pressure;BME280_temperature;BME280_humidity;BME280_pressure;Samples;Min_cycle;Max_cycle;Signal;HPM_P1;HPM_P2
2023/11/14 00:02:43;;;;;;;;;;;;;;;;;;6277659;28;19924;-85
2023/11/14 00:05:43;;;;;;;;;;;;;;;;;;6274639;28;19917;-83
2023/11/14 00:08:43;;;;;;;;;;;;;;;;;;6280932;28;19916;-83
2023/11/14 00:11:43;;;;;;;;;;;;;;;;;;6274876;28;19923;-83
2023/11/14 00:14:44;;;;;;;;;;;;;;;;;;6275002;28;19917;-83
2023/11/14 00:17:44;;;;;;;;;;;;;;;;;;6279561;28;19920;-83
2023/11/14 00:20:44;;;;;;;;;;;;;;;;;;6287805;28;19917;-83
2023/11/14 00:23:45;;;;;;;;;;;;;;;;;;6290072;28;19916;-83
2023/11/14 00:26:45;;;;;;;;;;;;;;;;;;6276270;28;19917;-85
2023/11/14 00:29:46;;;;;;;;;;;;;;;;;;6273610;28;20281;-82
2023/11/14 00:32:46;;;;;;;;;;;;;;;;;;6275120;28;19916;-83
2023/11/14 00:35:46;;;;;;;;;;;;;;;;;;6280789;28;19989;-83
2023/11/14 00:38:46;;;;;;;;;;;;;;;;;;6273576;28;20377;-83
2023/11/14 00:41:47;;;;;;;;;;;;;;;;;;6273922;28;19917;-83
2023/11/14 00:44:47;;;;;;;;;;;;;;;;;;6276639;28;19939;-84
2023/11/14 00:47:47;;;;;;;;;;;;;;;;;;6276166;28;20018;-85
2023/11/14 00:50:47;;;;;;;;;;;;;;;;;;6278751;28;19917;-90
2023/11/14 00:53:51;;;;;;;;;;;;;;;;;;6287212;28;20007;-90
2023/11/14 00:56:51;;;;;;;;;;;;;;;;;;6290750;28;20325;-90
2023/11/14 00:59:51;;;;;;;;;;;;;;;;;;6293091;28;19923;-91
2023/11/14 01:02:53;;;;;;;;;;;;;;;;;;6284732;28;19924;-92
2023/11/14 01:05:54;;;;;;;;;;;;;;;;;;6278104;28;19912;-90
2023/11/14 01:08:55;;;;;;;;;;;;;;;;;;6277481;28;20289;-90
2023/11/14 01:11:55;;;;;;;;;;;;;;;;;;6278625;28;20026;-90
2023/11/14 01:14:56;;;;;;;;;;;;;;;;;;6275118;28;19913;-90
2023/11/14 01:17:56;;;;;;;;;;;;;;;;;;6278114;28;19916;-90
2023/11/14 01:20:56;;;;;;;;;;;;;;;;;;6292811;28;19921;-90
2023/11/14 01:23:56;;;;;;;;;;;;;;;;;;6274979;28;20352;-90
2023/11/14 01:26:56;;;;;;;;;;;;;;;;;;6278552;28;20442;-90
2023/11/14 01:29:56;;;;;;;;;;;;;;;;;;6278912;28;19923;-90
2023/11/14 01:32:57;;;;;;;;;;;;;;;;;;6276139;28;19971;-89
2023/11/14 01:35:57;;;;;;;;;;;;;;;;;;6279335;28;19912;-91
2023/11/14 01:38:57;;;;;;;;;;;;;;;;;;6277554;28;20016;-91
2023/11/14 01:41:58;;;;;;;;;;;;;;;;;;6275946;28;19913;-91
2023/11/14 01:44:58;;;;;;;;;;;;;;;;;;6277105;28;19916;-91
2023/11/14 01:47:58;;;;;;;;;;;;;;;;;;6276158;28;19912;-91
2023/11/14 01:50:58;;;;;;;;;;;;;;;;;;6273848;28;19920;-92
2023/11/14 01:53:58;;;;;;;;;;;;;;;;;;6287537;28;19948;-92
2023/11/14 01:56:58;;;;;;;;;;;;;;;;;;6293098;28;19927;-92
2023/11/14 01:59:59;;;;;;;;;;;;;;;;;;6277346;28;19920;-81
2023/11/14 02:02:59;;;;;;;;;;;;;;;;;;6291172;28;19995;-82
2023/11/14 02:05:59;;;;;;;;;;;;;;;;;;6274172;28;20367;-82
2023/11/14 02:08:59;;;;;;;;;;;;;;;;;;6270806;28;19959;-83
2023/11/14 02:12:00;;;;;;;;;;;;;;;;;;6273320;28;19917;-82
2023/11/14 02:15:04;;;;;;;;;;;;;;;;;;6290844;28;19991;-82
2023/11/14 02:18:04;;;;;;;;;;;;;;;;;;6278409;28;19924;-82
2023/11/14 02:21:04;;;;;;;;;;;;;;;;;;6271477;28;19924;-82
2023/11/14 02:24:04;;;;;;;;;;;;;;;;;;6272616;28;19924;-82
2023/11/14 02:27:07;;;;;;;;;;;;;;;;;;6274707;28;20412;-82
2023/11/14 02:30:08;;;;;;;;;;;;;;;;;;6275060;28;20309;-82
2023/11/14 02:33:08;;;;;;;;;;;;;;;;;;6292217;28;19920;-81
2023/11/14 02:36:08;;;;;;;;;;;;;;;;;;6297873;28;19940;-82
2023/11/14 02:39:08;;;;;;;;;;;;;;;;;;6275323;28;19928;-82
2023/11/14 02:42:11;;;;;;;;;;;;;;;;;;6296531;28;19913;-81
2023/11/14 02:45:11;;;;;;;;;;;;;;;;;;6300651;28;19958;-82
2023/11/14 02:48:11;;;;;;;;;;;;;;;;;;6298713;28;19908;-82
2023/11/14 02:51:13;;;;;;;;;;;;;;;;;;6297246;28;20361;-82
2023/11/14 02:54:13;;;;;;;;;;;;;;;;;;6315765;28;19908;-82
2023/11/14 02:57:13;;;;;;;;;;;;;;;;;;6315222;28;20358;-82
2023/11/14 03:00:15;;;;;;;;;;;;;;;;;;6306449;28;19917;-82
2023/11/14 03:03:16;;;;;;;;;;;;;;;;;;6298543;28;20419;-82
2023/11/14 03:06:16;;;;;;;;;;;;;;;;;;6298339;28;19991;-82
2023/11/14 03:09:16;;;;;;;;;;;;;;;;;;6298652;28;19916;-82
2023/11/14 03:12:17;;;;;;;;;;;;;;;;;;6314579;28;19963;-82
2023/11/14 03:15:17;;;;;;;;;;;;;;;;;;6297083;28;20117;-82
2023/11/14 03:18:17;;;;;;;;;;;;;;;;;;6299738;28;20292;-82
2023/11/14 03:21:17;;;;;;;;;;;;;;;;;;6309719;28;20361;-82
2023/11/14 03:24:18;;;;;;;;;;;;;;;;;;6292290;28;19920;-82
2023/11/14 03:27:18;;;;;;;;;;;;;;;;;;6296662;28;19966;-83
2023/11/14 03:30:23;;;;;;;;;;;;;;;;;;6285341;28;20331;-83
2023/11/14 03:33:24;;;;;;;;;;;;;;;;;;6302999;28;19923;-83
2023/11/14 03:36:24;;;;;;;;;;;;;;;;;;6285817;28;20420;-83
2023/11/14 03:39:26;;;;;;;;;;;;;;;;;;6278228;28;19927;-83
2023/11/14 03:42:26;;;;;;;;;;;;;;;;;;6286385;28;20369;-84
2023/11/14 03:45:26;;;;;;;;;;;;;;;;;;6289240;28;19932;-83
2023/11/14 03:48:26;;;;;;;;;;;;;;;;;;6279063;28;19948;-83
2023/11/14 03:51:26;;;;;;;;;;;;;;;;;;6295503;28;19923;-83
2023/11/14 03:54:27;;;;;;;;;;;;;;;;;;6297116;28;20468;-83
2023/11/14 03:57:27;;;;;;;;;;;;;;;;;;6290336;28;19916;-84
2023/11/14 04:00:27;;;;;;;;;;;;;;;;;;6295036;28;19920;-83
2023/11/14 04:03:27;;;;;;;;;;;;;;;;;;6293184;28;19965;-83
2023/11/14 04:06:28;;;;;;;;;;;;;;;;;;6277361;28;19951;-84
2023/11/14 04:09:28;;;;;;;;;;;;;;;;;;6278881;28;20044;-83
2023/11/14 04:12:28;;;;;;;;;;;;;;;;;;6283849;28;20276;-83
2023/11/14 04:15:28;;;;;;;;;;;;;;;;;;6303837;28;20337;-83
2023/11/14 04:18:28;;;;;;;;;;;;;;;;;;6293782;28;19909;-83
2023/11/14 04:21:28;;;;;;;;;;;;;;;;;;6296023;28;19917;-94
2023/11/14 04:24:29;;;;;;;;;;;;;;;;;;6289521;28;19916;-94
2023/11/14 04:27:29;;;;;;;;;;;;;;;;;;6299306;28;19912;-94
2023/11/14 04:30:29;;;;;;;;;;;;;;;;;;6312208;28;19912;-93
2023/11/14 04:33:29;;;;;;;;;;;;;;;;;;6312753;28;19920;-95
2023/11/14 04:36:29;;;;;;;;;;;;;;;;;;6299123;28;20383;-95
2023/11/14 04:39:29;;;;;;;;;;;;;;;;;;6297154;28;19920;-93
2023/11/14 04:42:30;;;;;;;;;;;;;;;;;;6281559;28;19948;-93
2023/11/14 04:45:30;;;;;;;;;;;;;;;;;;6295699;28;20434;-94
2023/11/14 04:48:30;;;;;;;;;;;;;;;;;;6299024;28;20357;-93
2023/11/14 04:51:30;;;;;;;;;;;;;;;;;;6287737;28;19971;-94
2023/11/14 04:54:30;;;;;;;;;;;;;;;;;;6277112;28;19999;-94
2023/11/14 04:57:30;;;;;;;;;;;;;;;;;;6295364;28;19946;-94
2023/11/14 05:00:30;;;;;;;;;;;;;;;;;;6292457;28;19920;-93
2023/11/14 05:03:31;;;;;;;;;;;;;;;;;;6280662;28;19924;-93
2023/11/14 05:06:31;;;;;;;;;;;;;;;;;;6277082;28;20000;-94
2023/11/14 05:09:31;;;;;;;;;;;;;;;;;;6281159;28;19912;-94
2023/11/14 05:12:31;;;;;;;;;;;;;;;;;;6280436;28;19921;-94
2023/11/14 05:15:31;;;;;;;;;;;;;;;;;;6280248;28;19919;-91
2023/11/14 05:18:32;;;;;;;;;;;;;;;;;;6280371;28;19912;-93
2023/11/14 05:21:33;;;;;;;;;;;;;;;;;;6294778;28;19963;-93
2023/11/14 05:24:33;;;;;;;;;;;;;;;;;;6277718;28;19924;-92
2023/11/14 05:27:33;;;;;;;;;;;;;;;;;;6271983;28;19973;-94
2023/11/14 05:30:33;;;;;;;;;;;;;;;;;;6286031;28;20382;-82
2023/11/14 05:33:33;;;;;;;;;;;;;;;;;;6280612;28;19913;-83
2023/11/14 05:36:33;;;;;;;;;;;;;;;;;;6288110;28;19913;-83
2023/11/14 05:39:34;;;;;;;;;;;;;;;;;;6288350;28;19976;-82
2023/11/14 05:42:34;;;;;;;;;;;;;;;;;;6275128;28;20727;-82
2023/11/14 05:45:35;;;;;;;;;;;;;;;;;;6293515;28;19934;-82
2023/11/14 05:48:35;;;;;;;;;;;;;;;;;;6279727;28;19912;-81
2023/11/14 05:51:35;;;;;;;;;;;;;;;;;;6280484;28;19919;-81
2023/11/14 05:54:35;;;;;;;;;;;;;;;;;;6271786;28;19983;-83
2023/11/14 05:57:35;;;;;;;;;;;;;;;;;;6274443;28;20341;-83
2023/11/14 06:00:36;;;;;;;;;;;;;;;;;;6275350;28;19970;-83
2023/11/14 06:03:36;;;;;;;;;;;;;;;;;;6275545;28;19931;-83
2023/11/14 06:06:37;;;;;;;;;;;;;;;;;;6289778;28;20015;-84
2023/11/14 06:09:37;;;;;;;;;;;;;;;;;;6297962;28;20090;-83
2023/11/14 06:12:39;;;;;;;;;;;;;;;;;;6276312;28;19923;-83
2023/11/14 06:15:39;;;;;;;;;;;;;;;;;;6297668;28;20011;-83
2023/11/14 06:18:40;;;;;;;;;;;;;;;;;;6281684;28;19921;-83
2023/11/14 06:21:42;;;;;;;;;;;;;;;;;;6279502;28;19978;-83
2023/11/14 06:24:43;;;;;;;;;;;;;;;;;;6301243;28;19927;-83
2023/11/14 06:27:43;;;;;;;;;;;;;;;;;;6297830;28;19916;-83
2023/11/14 06:30:43;;;;;;;;;;;;;;;;;;6294508;28;20282;-83
2023/11/14 06:33:43;;;;;;;;;;;;;;;;;;6278796;28;19917;-83
2023/11/14 06:36:44;;;;;;;;;;;;;;;;;;6277850;28;19960;-83
2023/11/14 06:39:44;;;;;;;;;;;;;;;;;;6281758;28;19975;-94
2023/11/14 06:42:45;;;;;;;;;;;;;;;;;;6285554;28;19921;-92
2023/11/14 06:45:45;;;;;;;;;;;;;;;;;;6280621;28;19924;-94
2023/11/14 06:48:45;;;;;;;;;;;;;;;;;;6279788;28;20431;-93
2023/11/14 06:51:45;;;;;;;;;;;;;;;;;;6278755;28;19920;-93
2023/11/14 06:54:45;;;;;;;;;;;;;;;;;;6282161;28;19917;-92
2023/11/14 06:57:45;;;;;;;;;;;;;;;;;;6293884;28;20005;-91
2023/11/14 07:00:45;;;;;;;;;;;;;;;;;;6288789;28;19916;-91
2023/11/14 07:03:45;;;;;;;;;;;;;;;;;;6283918;28;20414;-89
2023/11/14 07:06:45;;;;;;;;;;;;;;;;;;6279088;28;19913;-91
2023/11/14 07:09:46;;;;;;;;;;;;;;;;;;6295721;28;19913;-90
2023/11/14 07:12:46;;;;;;;;;;;;;;;;;;6283481;28;19912;-89
2023/11/14 07:15:47;;;;;;;;;;;;;;;;;;6282073;28;19975;-91
2023/11/14 07:18:47;;;;;;;;;;;;;;;;;;6282408;28;19927;-91
2023/11/14 07:21:47;;;;;;;;;;;;;;;;;;6278462;28;19921;-89
2023/11/14 07:24:47;;;;;;;;;;;;;;;;;;6278932;28;19943;-91
2023/11/14 07:27:49;;;;;;;;;;;;;;;;;;6293892;28;19917;-92
2023/11/14 07:30:51;;;;;;;;;;;;;;;;;;6296223;28;19955;-90
2023/11/14 07:33:52;;;;;;;;;;;;;;;;;;6288447;28;19908;-90
2023/11/14 07:36:52;;;;;;;;;;;;;;;;;;6313292;28;19912;-89
2023/11/14 07:39:52;;;;;;;;;;;;;;;;;;6284227;28;19982;-90
2023/11/14 07:42:52;;;;;;;;;;;;;;;;;;6299609;28;19985;-92
2023/11/14 07:45:53;;;;;;;;;;;;;;;;;;6292159;28;19912;-91
2023/11/14 07:48:53;;;;;;;;;;;;;;;;;;6293482;28;19912;-90
2023/11/14 07:51:53;;;;;;;;;;;;;;;;;;6298680;28;20001;-90
2023/11/14 07:54:55;;;;;;;;;;;;;;;;;;6313827;28;19912;-89
2023/11/14 07:57:55;;;;;;;;;;;;;;;;;;6297726;28;19913;-88
2023/11/14 08:00:58;;;;;;;;;;;;;;;;;;6305381;28;19923;-90
2023/11/14 08:03:59;;;;;;;;;;;;;;;;;;6296870;28;19963;-88
2023/11/14 08:06:59;;;;;;;;;;;;;;;;;;6295999;28;19912;-92
2023/11/14 08:10:00;;;;;;;;;;;;;;;;;;6298107;28;20021;-90
2023/11/14 08:13:00;;;;;;;;;;;;;;;;;;6297713;28;19912;-91
2023/11/14 08:16:00;;;;;;;;;;;;;;;;;;6295087;28;19912;-91
2023/11/14 08:19:00;;;;;;;;;;;;;;;;;;6290272;28;19913;-89
2023/11/14 08:22:05;;;;;;;;;;;;;;;;;;6298700;28;19916;-91
2023/11/14 08:25:05;;;;;;;;;;;;;;;;;;6297875;28;19923;-91
2023/11/14 08:28:07;;;;;;;;;;;;;;;;;;6299948;28;19908;-92
2023/11/14 08:31:07;;;;;;;;;;;;;;;;;;6300027;28;19916;-92
2023/11/14 08:34:08;;;;;;;;;;;;;;;;;;6299933;28;19908;-91
2023/11/14 08:37:08;;;;;;;;;;;;;;;;;;6299001;28;20460;-90
2023/11/14 08:40:12;;;;;;;;;;;;;;;;;;6296461;28;19924;-91
2023/11/14 08:43:12;;;;;;;;;;;;;;;;;;6293135;28;19913;-91
2023/11/14 08:46:12;;;;;;;;;;;;;;;;;;6294461;28;19913;-91
2023/11/14 08:49:12;;;;;;;;;;;;;;;;;;6284146;28;20334;-90
2023/11/14 08:52:12;;;;;;;;;;;;;;;;;;6274500;28;19958;-92
2023/11/14 08:55:12;;;;;;;;;;;;;;;;;;6284332;28;19913;-90
2023/11/14 08:58:12;;;;;;;;;;;;;;;;;;6298805;28;19918;-88
2023/11/14 09:01:14;;;;;;;;;;;;;;;;;;6296285;28;19921;-80
2023/11/14 09:04:14;;;;;;;;;;;;;;;;;;6295304;28;19913;-80
2023/11/14 09:07:14;;;;;;;;;;;;;;;;;;6296522;28;20013;-81
2023/11/14 09:10:15;;;;;;;;;;;;;;;;;;6296117;28;20365;-80
2023/11/14 09:13:15;;;;;;;;;;;;;;;;;;6297598;28;19916;-80
2023/11/14 09:16:17;;;;;;;;;;;;;;;;;;6295022;28;19913;-79
2023/11/14 09:19:17;;;;;;;;;;;;;;;;;;6292380;28;19940;-80
2023/11/14 09:22:17;;;;;;;;;;;;;;;;;;6297298;28;19959;-80
2023/11/14 09:25:17;;;;;;;;;;;;;;;;;;6295843;28;19921;-79
2023/11/14 09:28:17;;;;;;;;;;;;;;;;;;6288266;28;19962;-81
2023/11/14 09:31:17;;;;;;;;;;;;;;;;;;6280719;28;19917;-80
2023/11/14 09:34:18;;;;;;;;;;;;;;;;;;6278286;28;20325;-81
2023/11/14 09:37:18;;;;;;;;;;;;;;;;;;6293204;28;20369;-81
2023/11/14 09:40:18;;;;;;;;;;;;;;;;;;6296199;28;19927;-82
2023/11/14 09:43:21;;;;;;;;;;;;;;;;;;6293455;28;19939;-81
2023/11/14 09:46:21;;;;;;;;;;;;;;;;;;6295877;28;19916;-80
2023/11/14 09:49:21;;;;;;;;;;;;;;;;;;6296822;28;19916;-81
2023/11/14 09:52:21;;;;;;;;;;;;;;;;;;6279785;28;20250;-82
2023/11/14 09:55:21;;;;;;;;;;;;;;;;;;6310233;28;19966;-81
2023/11/14 09:58:21;;;;;;;;;;;;;;;;;;6286783;28;19923;-82
2023/11/14 10:01:21;;;;;;;;;;;;;;;;;;6291565;28;19920;-81
2023/11/14 10:04:21;;;;;;;;;;;;;;;;;;6299664;28;19925;-80
2023/11/14 10:07:24;;;;;;;;;;;;;;;;;;6298767;28;20372;-82
2023/11/14 10:10:24;;;;;;;;;;;;;;;;;;6289431;28;19912;-81
2023/11/14 10:13:24;;;;;;;;;;;;;;;;;;6289563;28;19913;-81
2023/11/14 10:16:25;;;;;;;;;;;;;;;;;;6295727;28;19913;-83
2023/11/14 10:19:25;;;;;;;;;;;;;;;;;;6283772;28;20432;-83
2023/11/14 10:22:27;;;;;;;;;;;;;;;;;;6276746;28;20290;-81
2023/11/14 10:25:27;;;;;;;;;;;;;;;;;;6283858;28;20388;-81
2023/11/14 10:28:27;;;;;;;;;;;;;;;;;;6288299;28;19920;-81
2023/11/14 10:31:27;;;;;;;;;;;;;;;;;;6281796;28;19912;-81
2023/11/14 10:34:27;;;;;;;;;;;;;;;;;;6277783;28;20305;-82
2023/11/14 10:37:27;;;;;;;;;;;;;;;;;;6300888;28;19916;-81
2023/11/14 10:40:28;;;;;;;;;;;;;;;;;;6299001;28;19924;-81
2023/11/14 10:43:37;;;;;;;;;;;;;;;;;;6284866;28;19924;-81
2023/11/14 10:46:37;;;;;;;;;;;;;;;;;;6298014;28;20026;-82
2023/11/14 10:49:37;;;;;;;;;;;;;;;;;;6295670;28;20365;-82
2023/11/14 10:52:38;;;;;;;;;;;;;;;;;;6300630;28;19913;-81
2023/11/14 10:55:38;;;;;;;;;;;;;;;;;;6290636;28;19920;-82
2023/11/14 10:58:38;;;;;;;;;;;;;;;;;;6288542;28;19912;-81
2023/11/14 11:01:38;;;;;;;;;;;;;;;;;;6301255;28;19920;-81
2023/11/14 11:04:38;;;;;;;;;;;;;;;;;;6285438;28;19917;-81
2023/11/14 11:07:38;;;;;;;;;;;;;;;;;;6285475;28;19916;-81
2023/11/14 11:10:38;;;;;;;;;;;;;;;;;;6298205;28;19912;-82
2023/11/14 11:13:40;;;;;;;;;;;;;;;;;;6293800;28;19913;-81
2023/11/14 11:16:43;;;;;;;;;;;;;;;;;;6288565;28;19934;-81
2023/11/14 11:19:45;;;;;;;;;;;;;;;;;;6280286;28;19947;-83
2023/11/14 11:22:45;;;;;;;;;;;;;;;;;;6280705;28;20020;-82
2023/11/14 11:25:47;;;;;;;;;;;;;;;;;;6286804;28;19920;-82
2023/11/14 11:28:47;;;;;;;;;;;;;;;;;;6295645;28;19913;-82
2023/11/14 11:31:48;;;;;;;;;;;;;;;;;;6298783;28;19923;-81
2023/11/14 11:34:48;;;;;;;;;;;;;;;;;;6296541;28;19912;-81
2023/11/14 11:37:48;;;;;;;;;;;;;;;;;;6298678;28;19916;-82
2023/11/14 11:40:48;;;;;;;;;;;;;;;;;;6313382;28;20468;-81
2023/11/14 11:43:48;;;;;;;;;;;;;;;;;;6277469;28;19935;-81
2023/11/14 11:46:49;;;;;;;;;;;;;;;;;;6301116;28;19919;-81
2023/11/14 11:49:49;;;;;;;;;;;;;;;;;;6282825;28;19932;-74
2023/11/14 11:52:49;;;;;;;;;;;;;;;;;;6296032;28;19923;-81
2023/11/14 11:55:50;;;;;;;;;;;;;;;;;;6281854;28;19909;-81
2023/11/14 11:58:50;;;;;;;;;;;;;;;;;;6294459;28;19920;-80
2023/11/14 12:01:52;;;;;;;;;;;;;;;;;;6297724;28;19912;-80
2023/11/14 12:04:54;;;;;;;;;;;;;;;;;;6295651;28;19916;-80
2023/11/14 12:07:54;;;;;;;;;;;;;;;;;;6297400;28;19954;-80
2023/11/14 12:10:54;;;;;;;;;;;;;;;;;;6295083;28;20281;-81
2023/11/14 12:13:55;;;;;;;;;;;;;;;;;;6291560;28;19913;-81
2023/11/14 12:16:56;;;;;;;;;;;;;;;;;;6298916;28;19915;-80
2023/11/14 12:19:56;;;;;;;;;;;;;;;;;;6295983;28;20347;-90
2023/11/14 12:22:56;;;;;;;;;;;;;;;;;;6304123;28;19921;-89
2023/11/14 12:25:56;;;;;;;;;;;;;;;;;;6309819;28;19924;-90
2023/11/14 12:28:56;;;;;;;;;;;;;;;;;;6297599;28;19912;-84
2023/11/14 12:31:56;;;;;;;;;;;;;;;;;;6296691;28;20482;-83
2023/11/14 12:34:56;;;;;;;;;;;;;;;;;;6294039;28;19913;-84
2023/11/14 12:37:58;;;;;;;;;;;;;;;;;;6295117;28;19920;-84
2023/11/14 12:40:58;;;;;;;;;;;;;;;;;;6297916;28;19931;-83
2023/11/14 12:43:59;;;;;;;;;;;;;;;;;;6299671;28;20019;-84
2023/11/14 12:46:59;;;;;;;;;;;;;;;;;;6294778;28;19909;-84
2023/11/14 12:50:00;;;;;;;;;;;;;;;;;;6295992;28;20022;-83
2023/11/14 12:53:00;;;;;;;;;;;;;;;;;;6297632;28;19908;-84
2023/11/14 12:56:00;;;;;;;;;;;;;;;;;;6297914;28;19908;-83
2023/11/14 12:59:00;;;;;;;;;;;;;;;;;;6295648;28;19924;-84
2023/11/14 13:02:01;;;;;;;;;;;;;;;;;;6287869;28;19974;-83
2023/11/14 13:05:01;;;;;;;;;;;;;;;;;;6296946;28;19915;-83
2023/11/14 13:08:01;;;;;;;;;;;;;;;;;;6297515;28;19931;-83
2023/11/14 13:11:01;;;;;;;;;;;;;;;;;;6298024;28;20265;-83
2023/11/14 13:14:01;;;;;;;;;;;;;;;;;;6282331;28;19913;-83
2023/11/14 13:17:04;;;;;;;;;;;;;;;;;;6282505;28;19958;-83
2023/11/14 13:20:04;;;;;;;;;;;;;;;;;;6302415;28;20015;-84
2023/11/14 13:23:04;;;;;;;;;;;;;;;;;;6308389;28;20345;-85
2023/11/14 13:26:05;;;;;;;;;;;;;;;;;;6301024;28;19923;-84
2023/11/14 13:29:05;;;;;;;;;;;;;;;;;;6297397;28;20242;-84
2023/11/14 13:32:06;;;;;;;;;;;;;;;;;;6297354;28;19914;-83
2023/11/14 13:35:06;;;;;;;;;;;;;;;;;;6309970;28;19912;-85
2023/11/14 13:38:06;;;;;;;;;;;;;;;;;;6302265;28;19966;-84
2023/11/14 13:41:06;;;;;;;;;;;;;;;;;;6298322;28;19966;-84
2023/11/14 13:44:07;;;;;;;;;;;;;;;;;;6292244;28;19909;-84
2023/11/14 13:47:07;;;;;;;;;;;;;;;;;;6283542;28;19939;-84
2023/11/14 13:50:10;;;;;;;;;;;;;;;;;;6294563;28;19912;-83
2023/11/14 13:53:10;;;;;;;;;;;;;;;;;;6296981;28;20018;-83
2023/11/14 13:56:10;;;;;;;;;;;;;;;;;;6312785;28;19914;-83
2023/11/14 13:59:10;;;;;;;;;;;;;;;;;;6283928;28;19920;-83
2023/11/14 14:02:14;;;;;;;;;;;;;;;;;;6280105;28;19953;-83
2023/11/14 14:05:14;;;;;;;;;;;;;;;;;;6295561;28;19912;-83
2023/11/14 14:08:14;;;;;;;;;;;;;;;;;;6296195;28;19962;-83
2023/11/14 14:11:15;;;;;;;;;;;;;;;;;;6297163;28;19932;-83
2023/11/14 14:14:16;;;;;;;;;;;;;;;;;;6296893;28;19917;-83
2023/11/14 14:17:16;;;;;;;;;;;;;;;;;;6290676;28;20377;-83
2023/11/14 14:20:17;;;;;;;;;;;;;;;;;;6292305;28;19928;-83
2023/11/14 14:23:21;;;;;;;;;;;;;;;;;;6321271;28;19918;-83
2023/11/14 14:26:22;;;;;;;;;;;;;;;;;;6299016;28;19958;-83
2023/11/14 14:29:22;;;;;;;;;;;;;;;;;;6296750;28;19913;-83
2023/11/14 14:32:22;;;;;;;;;;;;;;;;;;6297089;28;19932;-83
2023/11/14 14:35:22;;;;;;;;;;;;;;;;;;6303852;28;19912;-83
2023/11/14 14:38:22;;;;;;;;;;;;;;;;;;6295725;28;19967;-83
2023/11/14 14:41:22;;;;;;;;;;;;;;;;;;6278221;28;19921;-83
2023/11/14 14:44:24;;;;;;;;;;;;;;;;;;6294132;28;20335;-84
2023/11/14 14:47:25;;;;;;;;;;;;;;;;;;6301309;28;19908;-84
2023/11/14 14:50:25;;;;;;;;;;;;;;;;;;6316291;28;19915;-83
2023/11/14 14:53:27;;;;;;;;;;;;;;;;;;6299387;28;19927;-84
2023/11/14 14:56:27;;;;;;;;;;;;;;;;;;6300678;28;19909;-83
2023/11/14 14:59:28;;;;;;;;;;;;;;;;;;6284683;28;20366;-83
2023/11/14 15:02:28;;;;;;;;;;;;;;;;;;6307933;28;19959;-82
2023/11/14 15:05:34;;;;;;;;;;;;;;;;;;6282491;28;20250;-82
2023/11/14 15:08:34;;;;;;;;;;;;;;;;;;6275501;28;19919;-85
2023/11/14 15:11:35;;;;;;;;;;;;;;;;;;6275972;28;19909;-85
2023/11/14 15:14:36;;;;;;;;;;;;;;;;;;6278243;28;19963;-83
2023/11/14 15:17:37;;;;;;;;;;;;;;;;;;6276755;28;20332;-82
2023/11/14 15:20:37;;;;;;;;;;;;;;;;;;6278170;28;19920;-83
2023/11/14 15:23:37;;;;;;;;;;;;;;;;;;6300094;28;20064;-83
2023/11/14 15:26:37;;;;;;;;;;;;;;;;;;6300382;28;20297;-83
2023/11/14 15:29:37;;;;;;;;;;;;;;;;;;6315626;28;19961;-83
2023/11/14 15:32:37;;;;;;;;;;;;;;;;;;6292545;28;20316;-83
2023/11/14 15:35:39;;;;;;;;;;;;;;;;;;6285072;28;19958;-82
2023/11/14 15:38:39;;;;;;;;;;;;;;;;;;6296213;28;19955;-83
2023/11/14 15:41:39;;;;;;;;;;;;;;;;;;6280451;28;19912;-82
2023/11/14 15:44:39;;;;;;;;;;;;;;;;;;6299530;28;19978;-83
2023/11/14 15:47:39;;;;;;;;;;;;;;;;;;6299595;28;19955;-83
2023/11/14 15:50:40;;;;;;;;;;;;;;;;;;6297090;28;19909;-83
2023/11/14 15:53:40;;;;;;;;;;;;;;;;;;6298451;28;19966;-83
2023/11/14 15:56:41;;;;;;;;;;;;;;;;;;6299639;28;19909;-85
2023/11/14 15:59:41;;;;;;;;;;;;;;;;;;6299101;28;20124;-83
2023/11/14 16:02:41;;;;;;;;;;;;;;;;;;6299569;28;20349;-83
2023/11/14 16:05:42;;;;;;;;;;;;;;;;;;6296349;28;19923;-83
2023/11/14 16:08:42;;;;;;;;;;;;;;;;;;6274126;28;19947;-82
2023/11/14 16:11:42;;;;;;;;;;;;;;;;;;6284312;28;19913;-82
2023/11/14 16:14:42;;;;;;;;;;;;;;;;;;6298574;28;19995;-83
2023/11/14 16:17:42;;;;;;;;;;;;;;;;;;6308816;28;20014;-83
2023/11/14 16:20:42;;;;;;;;;;;;;;;;;;6272929;28;19935;-83
2023/11/14 16:23:42;;;;;;;;;;;;;;;;;;6281394;28;19916;-82
2023/11/14 16:26:42;;;;;;;;;;;;;;;;;;6298973;28;19912;-82
2023/11/14 16:29:44;;;;;;;;;;;;;;;;;;6298258;28;19912;-85
2023/11/14 16:32:44;;;;;;;;;;;;;;;;;;6301939;28;19917;-83
2023/11/14 16:35:44;;;;;;;;;;;;;;;;;;6287243;28;19923;-83
2023/11/14 16:38:44;;;;;;;;;;;;;;;;;;6280009;28;20423;-85
2023/11/14 16:41:44;;;;;;;;;;;;;;;;;;6297335;28;19925;-83
2023/11/14 16:44:44;;;;;;;;;;;;;;;;;;6298049;28;20038;-83
2023/11/14 16:47:46;;;;;;;;;;;;;;;;;;6298393;28;19909;-83
2023/11/14 16:50:46;;;;;;;;;;;;;;;;;;6297382;28;19912;-83
2023/11/14 16:53:46;;;;;;;;;;;;;;;;;;6290421;28;19966;-83
2023/11/14 16:56:46;;;;;;;;;;;;;;;;;;6272953;28;19963;-83
2023/11/14 16:59:47;;;;;;;;;;;;;;;;;;6291399;28;20359;-83
2023/11/14 17:02:47;;;;;;;;;;;;;;;;;;6284274;28;20314;-81
2023/11/14 17:05:47;;;;;;;;;;;;;;;;;;6275548;28;19993;-81
2023/11/14 17:08:47;;;;;;;;;;;;;;;;;;6297842;28;19919;-80
2023/11/14 17:11:47;;;;;;;;;;;;;;;;;;6313629;28;20124;-80
2023/11/14 17:14:48;;;;;;;;;;;;;;;;;;6288489;28;19920;-80
2023/11/14 17:17:48;;;;;;;;;;;;;;;;;;6292138;28;20003;-80
2023/11/14 17:20:50;;;;;;;;;;;;;;;;;;6271953;28;20400;-79
2023/11/14 17:23:50;;;;;;;;;;;;;;;;;;6296801;28;19920;-80
2023/11/14 17:26:51;;;;;;;;;;;;;;;;;;6295943;28;20368;-80
2023/11/14 17:29:52;;;;;;;;;;;;;;;;;;6272502;28;20281;-80
2023/11/14 17:32:52;;;;;;;;;;;;;;;;;;6272745;28;19919;-79
2023/11/14 17:35:52;;;;;;;;;;;;;;;;;;6271589;28;19909;-80
2023/11/14 17:38:54;;;;;;;;;;;;;;;;;;6276242;28;19921;-79
2023/11/14 17:41:54;;;;;;;;;;;;;;;;;;6295825;28;19917;-80
2023/11/14 17:44:54;;;;;;;;;;;;;;;;;;6294632;28;19959;-80
2023/11/14 17:47:54;;;;;;;;;;;;;;;;;;6288343;28;20320;-80
2023/11/14 17:50:55;;;;;;;;;;;;;;;;;;6304938;28;19912;-79
2023/11/14 17:53:55;;;;;;;;;;;;;;;;;;6295262;28;19913;-80
2023/11/14 17:56:55;;;;;;;;;;;;;;;;;;6294577;28;19913;-79
2023/11/14 17:59:56;;;;;;;;;;;;;;;;;;6312334;28;20389;-80
2023/11/14 18:02:56;;;;;;;;;;;;;;;;;;6295184;28;19970;-81
2023/11/14 18:05:56;;;;;;;;;;;;;;;;;;6292426;28;19919;-80
2023/11/14 18:08:56;;;;;;;;;;;;;;;;;;6287225;28;19920;-83
2023/11/14 18:11:58;;;;;;;;;;;;;;;;;;6276781;28;19920;-80
2023/11/14 18:14:58;;;;;;;;;;;;;;;;;;6296314;28;19928;-78
2023/11/14 18:17:58;;;;;;;;;;;;;;;;;;6281534;28;20281;-79
2023/11/14 18:20:58;;;;;;;;;;;;;;;;;;6277729;28;19980;-86
2023/11/14 18:23:58;;;;;;;;;;;;;;;;;;6275811;28;19925;-83
2023/11/14 18:26:58;;;;;;;;;;;;;;;;;;6281832;28;19923;-81
2023/11/14 18:29:59;;;;;;;;;;;;;;;;;;6277640;28;19971;-80
2023/11/14 18:32:59;;;;;;;;;;;;;;;;;;6281867;28;19921;-77
2023/11/14 18:36:01;;;;;;;;;;;;;;;;;;6296553;28;19924;-77
2023/11/14 18:39:01;;;;;;;;;;;;;;;;;;6277010;28;20369;-80
2023/11/14 18:42:02;;;;;;;;;;;;;;;;;;6293783;28;19917;-80
2023/11/14 18:45:03;;;;;;;;;;;;;;;;;;6281080;28;19970;-83
2023/11/14 18:48:03;;;;;;;;;;;;;;;;;;6276986;28;19920;-83
2023/11/14 18:51:03;;;;;;;;;;;;;;;;;;6296939;28;20004;-81
2023/11/14 18:54:03;;;;;;;;;;;;;;;;;;6288259;28;20288;-81
2023/11/14 18:57:04;;;;;;;;;;;;;;;;;;6279532;28;19921;-81
2023/11/14 19:00:04;;;;;;;;;;;;;;;;;;6287782;28;19920;-81
2023/11/14 19:03:06;;;;;;;;;;;;;;;;;;6298453;28;20411;-81
2023/11/14 19:06:08;;;;;;;;;;;;;;;;;;6299994;28;19908;-82
2023/11/14 19:09:08;;;;;;;;;;;;;;;;;;6295448;28;19982;-81
2023/11/14 19:12:10;;;;;;;;;;;;;;;;;;6278621;28;20365;-81
2023/11/14 19:15:10;;;;;;;;;;;;;;;;;;6293736;28;20007;-81
2023/11/14 19:18:14;;;;;;;;;;;;;;;;;;6289258;28;19919;-81
2023/11/14 19:21:14;;;;;;;;;;;;;;;;;;6285644;28;19916;-81
2023/11/14 19:24:18;;;;;;;;;;;;;;;;;;6297741;28;19916;-87
2023/11/14 19:27:18;;;;;;;;;;;;;;;;;;6307096;28;19908;-81
2023/11/14 19:30:20;;;;;;;;;;;;;;;;;;6297066;28;19921;-85
2023/11/14 19:33:21;;;;;;;;;;;;;;;;;;6297585;28;19919;-87
2023/11/14 19:36:21;;;;;;;;;;;;;;;;;;6276504;28;20011;-85
2023/11/14 19:39:21;;;;;;;;;;;;;;;;;;6290612;28;19920;-85
2023/11/14 19:42:22;;;;;;;;;;;;;;;;;;6273748;28;19913;-84
2023/11/14 19:45:22;;;;;;;;;;;;;;;;;;6275229;28;19909;-85
2023/11/14 19:48:22;;;;;;;;;;;;;;;;;;6279806;28;19956;-85
2023/11/14 19:51:23;;;;;;;;;;;;;;;;;;6291509;28;20012;-83
2023/11/14 19:54:25;;;;;;;;;;;;;;;;;;6299145;28;19912;-85
2023/11/14 19:57:25;;;;;;;;;;;;;;;;;;6298919;28;19909;-84
2023/11/14 20:00:25;;;;;;;;;;;;;;;;;;6295687;28;19927;-85
2023/11/14 20:03:25;;;;;;;;;;;;;;;;;;6293496;28;20007;-88
2023/11/14 20:06:26;;;;;;;;;;;;;;;;;;6278326;28;20012;-84
2023/11/14 20:09:28;;;;;;;;;;;;;;;;;;6276291;28;19951;-87
2023/11/14 20:12:29;;;;;;;;;;;;;;;;;;6282626;28;19928;-85
2023/11/14 20:15:29;;;;;;;;;;;;;;;;;;6295931;28;19917;-85
2023/11/14 20:18:29;;;;;;;;;;;;;;;;;;6276415;28;20289;-85
2023/11/14 20:21:29;;;;;;;;;;;;;;;;;;6278651;28;20007;-86
2023/11/14 20:24:29;;;;;;;;;;;;;;;;;;6285851;28;19931;-85
2023/11/14 20:27:30;;;;;;;;;;;;;;;;;;6280773;28;19924;-84
2023/11/14 20:30:31;;;;;;;;;;;;;;;;;;6279110;28;20361;-85
2023/11/14 20:33:32;;;;;;;;;;;;;;;;;;6273902;28;19916;-85